Time;durP1;ratioP1;P1;durP2;ratioP2;P2;SDS_P1;SDS_P2;PMS_P1;PMS_P2;Temp;Humidity;BMP_temperature;BMP_pressure;BME280_temperature;BME280_humidity;BME280_pressure;Samples;Min_cycle;Max_cycle;Signal;HPM_P1;HPM_P2
2022/01/30 00:00:27;;;;;;;0.90;0.90;;;8.10;75.40;;;7.49;59.13;94691.28;5038033;28;20222;-88
2022/01/30 00:02:54;;;;;;;0.80;0.80;;;8.10;75.30;;;7.52;59.10;94703.19;5037707;28;20274;-88
2022/01/30 00:05:22;;;;;;;0.73;0.73;;;8.10;75.40;;;7.43;59.40;94676.34;5037581;28;20398;-88
2022/01/30 00:07:50;;;;;;;0.82;0.82;;;8.20;75.50;;;7.43;59.70;94738.97;5066560;28;20206;-87
2022/01/30 00:10:18;;;;;;;0.70;0.70;;;8.20;75.50;;;7.36;60.24;94685.88;5060359;28;20276;-88
2022/01/30 00:15:15;;;;;;;0.90;0.90;;;8.20;76.00;;;7.22;61.18;94683.06;5056177;28;20216;-88
2022/01/30 00:17:51;;;;;;;1.02;1.02;;;8.10;76.30;;;7.23;61.94;94689.09;5041340;28;20199;-87
2022/01/30 00:20:22;;;;;;;0.85;0.85;;;8.10;76.60;;;7.14;62.13;94696.19;5058665;28;20226;-87
2022/01/30 00:23:10;;;;;;;0.90;0.90;;;8.10;76.60;;;6.97;62.20;94673.81;5044445;28;20218;-87
2022/01/30 00:25:51;;;;;;;0.80;0.80;;;8.10;76.80;;;6.86;62.59;94673.25;5048487;28;20218;-87
2022/01/30 00:28:23;;;;;;;1.00;1.00;;;8.00;76.80;;;6.91;62.67;94718.84;5057863;28;20518;-88
2022/01/30 00:30:55;;;;;;;1.10;1.10;;;7.90;76.70;;;6.80;63.10;94700.03;5021123;28;20286;-88
2022/01/30 00:33:23;;;;;;;0.90;0.90;;;7.90;77.00;;;6.81;63.09;94711.25;5053899;28;20200;-88
2022/01/30 00:35:51;;;;;;;1.10;1.10;;;7.80;77.00;;;6.83;62.54;94704.06;5021421;28;20227;-88
2022/01/30 00:38:21;;;;;;;0.90;0.90;;;7.80;77.00;;;6.78;63.24;94694.16;5021311;28;20292;-87
2022/01/30 00:40:52;;;;;;;1.10;1.10;;;7.70;77.30;;;6.84;63.27;94716.94;5049963;28;20311;-88
2022/01/30 00:43:20;;;;;;;1.00;1.00;;;7.70;77.30;;;6.81;62.84;94695.59;5020727;28;20232;-89
2022/01/30 00:45:49;;;;;;;1.10;1.10;;;7.70;77.30;;;6.85;63.16;94697.69;5044415;28;20215;-88
2022/01/30 00:48:17;;;;;;;1.00;1.00;;;7.70;78.20;;;6.85;62.73;94704.72;5037161;28;20215;-88
2022/01/30 00:50:45;;;;;;;1.30;1.20;;;7.70;77.30;;;6.91;62.83;94731.88;5020497;28;20294;-88
2022/01/30 00:53:14;;;;;;;1.20;1.20;;;7.80;77.40;;;6.92;63.07;94721.28;5050317;28;20210;-88
2022/01/30 00:55:44;;;;;;;1.10;1.10;;;7.80;77.50;;;6.93;62.67;94709.84;5044701;28;20238;-88
2022/01/30 00:58:13;;;;;;;0.90;0.90;;;7.70;77.40;;;7.01;62.35;94696.75;5024811;28;20295;-88
2022/01/30 01:00:41;;;;;;;1.20;1.10;;;7.70;77.30;;;6.95;62.55;94717.53;5036883;28;20221;-88
2022/01/30 01:03:09;;;;;;;1.20;1.20;;;7.70;77.40;;;6.99;62.52;94703.16;5033484;28;20664;-88
2022/01/30 01:05:39;;;;;;;1.60;1.02;;;7.80;77.40;;;7.00;62.69;94723.03;5032228;28;20220;-87
2022/01/30 01:08:19;;;;;;;1.20;1.15;;;7.70;77.40;;;6.98;62.52;94709.34;5059438;28;20202;-88
2022/01/30 01:10:54;;;;;;;0.98;0.98;;;7.80;77.50;;;7.03;62.05;94710.44;5034446;28;20211;-89
2022/01/30 01:14:13;;;;;;;0.95;0.95;;;7.80;77.40;;;7.01;62.50;94685.53;5041197;28;20656;-88
2022/01/30 01:24:40;;;;;;;0.90;0.90;;;7.80;77.30;;;6.97;62.78;94689.47;5062367;28;20293;-88
2022/01/30 01:27:08;;;;;;;1.20;0.98;;;7.90;77.50;;;6.93;62.91;94685.59;5043250;28;20206;-87
2022/01/30 01:29:37;;;;;;;1.00;1.00;;;7.80;77.50;;;6.90;64.01;94702.41;5039482;28;20219;-87
2022/01/30 01:32:05;;;;;;;0.90;0.90;;;7.80;77.70;;;6.82;63.94;94684.19;5023243;28;20203;-87
2022/01/30 01:34:36;;;;;;;1.00;1.00;;;7.80;77.80;;;6.69;64.99;94690.00;5039745;28;20227;-88
2022/01/30 01:37:09;;;;;;;1.00;1.00;;;7.80;78.10;;;6.58;65.27;94675.56;5039654;28;20282;-88
2022/01/30 01:39:42;;;;;;;0.80;0.80;;;7.70;78.40;;;6.53;65.72;94689.13;5041739;28;20313;-87
2022/01/30 01:42:10;;;;;;;1.00;1.00;;;7.60;78.40;;;6.41;66.16;94686.09;5059201;28;20346;-87
2022/01/30 01:44:43;;;;;;;0.98;0.93;;;7.60;78.70;;;6.37;65.90;94683.97;5038886;28;20212;-87
2022/01/30 01:47:11;;;;;;;0.90;0.90;;;7.50;78.80;;;6.39;66.05;94698.47;5021521;28;20200;-87
2022/01/30 01:49:41;;;;;;;0.90;0.90;;;7.60;79.00;;;6.37;66.60;94678.78;5023012;28;20222;-87
2022/01/30 01:52:21;;;;;;;1.27;0.80;;;7.40;79.20;;;6.31;67.16;94669.88;5022510;28;20204;-87
2022/01/30 01:54:53;;;;;;;0.90;0.90;;;7.40;79.50;;;6.32;66.87;94665.47;5041346;28;20229;-85
2022/01/30 01:57:23;;;;;;;1.10;1.00;;;7.40;79.50;;;6.27;66.74;94665.97;5039762;28;20571;-89
2022/01/30 01:59:56;;;;;;;1.00;1.00;;;7.30;79.50;;;6.27;66.82;94671.19;5024961;28;20246;-87
2022/01/30 02:02:41;;;;;;;0.90;0.90;;;7.30;79.50;;;6.28;66.69;94675.41;5064679;28;20214;-87
2022/01/30 02:05:10;;;;;;;0.88;0.88;;;7.30;79.50;;;6.29;66.75;94669.22;5057311;28;20222;-86
2022/01/30 02:08:09;;;;;;;0.90;0.90;;;7.30;79.60;;;6.29;66.33;94661.41;5074449;28;20226;-87
2022/01/30 02:13:17;;;;;;;0.90;0.90;;;7.20;79.40;;;6.25;66.31;94670.56;5046344;28;20207;-87
2022/01/30 02:24:18;;;;;;;0.93;0.93;;;7.20;79.40;;;6.23;66.44;94636.06;5035905;28;20243;-86
2022/01/30 02:26:47;;;;;;;0.90;0.90;;;7.30;79.50;;;6.21;67.43;94653.63;5050859;28;20198;-87
2022/01/30 02:29:15;;;;;;;0.82;0.82;;;7.20;79.80;;;6.16;67.27;94624.69;5042147;28;20741;-87
2022/01/30 02:31:44;;;;;;;0.80;0.80;;;7.20;80.00;;;6.16;67.54;94599.44;5058576;28;20202;-87
2022/01/30 02:34:11;;;;;;;0.90;0.90;;;7.20;80.00;;;6.12;67.72;94581.75;5058673;28;20214;-84
2022/01/30 02:36:51;;;;;;;0.85;0.85;;;7.10;80.20;;;6.16;67.96;94593.44;5057923;28;20297;-84
2022/01/30 02:39:21;;;;;;;0.90;0.90;;;7.10;80.50;;;6.13;68.36;94625.84;5039721;28;20253;-84
2022/01/30 02:41:49;;;;;;;0.63;0.63;;;7.10;80.50;;;6.13;68.54;94609.41;5039081;28;20290;-85
2022/01/30 02:44:22;;;;;;;0.80;0.80;;;7.10;80.60;;;6.06;68.26;94598.88;5039959;28;20229;-85
2022/01/30 02:46:54;;;;;;;0.75;0.75;;;7.10;80.70;;;6.12;69.10;94611.22;5057437;28;20215;-84
2022/01/30 02:51:58;;;;;;;0.90;0.90;;;7.10;81.50;;;6.10;69.11;94605.34;5058064;28;20297;-84
2022/01/30 02:54:31;;;;;;;0.90;0.90;;;7.00;81.30;;;6.08;69.24;94618.53;5045771;28;20224;-84
2022/01/30 02:56:58;;;;;;;0.80;0.80;;;7.10;81.50;;;6.07;69.73;94619.53;5052303;28;20286;-84
2022/01/30 02:59:27;;;;;;;0.80;0.80;;;7.00;81.70;;;5.97;69.60;94587.66;5058369;28;20214;-84
2022/01/30 03:01:54;;;;;;;0.70;0.70;;;7.00;82.10;;;6.02;69.65;94614.03;5041717;28;20207;-84
2022/01/30 03:04:22;;;;;;;0.80;0.80;;;7.00;82.10;;;6.00;69.89;94618.59;5041127;28;20575;-84
2022/01/30 03:06:50;;;;;;;0.80;0.80;;;7.00;82.10;;;6.02;69.77;94629.66;5056961;28;20198;-84
2022/01/30 03:09:32;;;;;;;0.80;0.80;;;6.90;82.10;;;5.97;69.69;94612.88;5046073;28;20229;-84
2022/01/30 03:11:59;;;;;;;0.80;0.80;;;7.00;82.10;;;5.95;70.18;94617.47;5060884;28;20309;-84
2022/01/30 03:14:26;;;;;;;0.80;0.80;;;6.90;82.10;;;5.88;69.89;94618.16;5044856;28;20239;-84
2022/01/30 03:16:54;;;;;;;3.70;0.90;;;6.90;82.10;;;5.91;69.36;94602.16;5045606;28;20542;-84
2022/01/30 03:19:21;;;;;;;1.58;0.93;;;6.90;82.10;;;5.94;69.32;94616.63;5053412;28;20289;-84
2022/01/30 03:21:49;;;;;;;1.00;1.00;;;6.90;82.10;;;5.90;69.54;94620.56;5042388;28;20219;-85
2022/01/30 03:24:17;;;;;;;0.90;0.90;;;6.90;82.10;;;5.91;69.40;94611.78;5042052;28;20235;-84
2022/01/30 03:26:45;;;;;;;1.70;1.20;;;6.90;82.10;;;5.93;69.97;94608.03;5058684;28;20199;-85
2022/01/30 03:29:34;;;;;;;1.10;1.00;;;6.90;82.10;;;5.92;69.88;94610.81;5047061;28;20261;-86
2022/01/30 03:32:02;;;;;;;1.27;1.17;;;7.00;82.20;;;5.95;69.49;94609.66;5042502;28;20196;-84
2022/01/30 03:34:30;;;;;;;1.10;1.10;;;6.90;82.10;;;5.96;69.92;94630.31;5041867;28;20703;-84
2022/01/30 03:36:58;;;;;;;1.20;1.10;;;6.90;82.20;;;6.00;69.82;94610.78;5043202;28;20263;-83
2022/01/30 03:39:27;;;;;;;1.30;1.20;;;7.00;82.20;;;5.99;69.38;94605.75;5061634;28;20210;-85
2022/01/30 03:41:56;;;;;;;1.00;1.00;;;7.00;82.10;;;5.96;69.73;94612.06;5061235;28;20286;-85
2022/01/30 03:44:24;;;;;;;1.00;1.00;;;7.00;82.10;;;6.00;69.38;94608.16;5061535;28;20226;-85
2022/01/30 03:46:51;;;;;;;1.48;1.30;;;7.00;82.20;;;6.03;69.52;94610.44;5060055;28;20201;-84
2022/01/30 03:49:23;;;;;;;1.20;1.10;;;7.10;82.10;;;6.08;68.99;94633.38;5046403;28;20272;-85
2022/01/30 03:51:52;;;;;;;1.33;1.23;;;7.10;82.10;;;6.17;68.75;94629.72;5076914;28;20268;-84
2022/01/30 03:54:32;;;;;;;1.85;1.45;;;7.10;81.80;;;6.19;69.03;94634.75;5079267;28;20218;-85
2022/01/30 03:57:03;;;;;;;2.63;1.50;;;7.10;81.70;;;6.12;68.72;94621.63;5057905;28;20278;-85
2022/01/30 03:59:32;;;;;;;2.53;1.60;;;7.20;81.70;;;6.15;68.53;94646.50;5028588;28;20306;-85
2022/01/30 04:02:00;;;;;;;2.65;1.80;;;7.20;81.40;;;6.23;67.75;94642.06;5041180;28;20213;-84
2022/01/30 04:04:29;;;;;;;3.15;2.10;;;7.20;81.10;;;6.27;67.33;94659.97;5043421;28;20622;-85
2022/01/30 04:06:58;;;;;;;4.05;2.17;;;7.20;80.90;;;6.30;67.19;94650.00;5055658;28;20216;-85
2022/01/30 04:09:44;;;;;;;3.80;2.10;;;7.30;80.70;;;6.31;67.60;94684.66;5066891;28;20221;-85
2022/01/30 04:12:38;;;;;;;3.95;2.20;;;7.30;80.90;;;6.36;66.77;94661.53;5064610;28;20289;-85
2022/01/30 04:15:15;;;;;;;4.43;2.50;;;7.30;80.20;;;6.36;66.48;94674.53;5043897;28;20218;-85
2022/01/30 04:17:58;;;;;;;4.03;2.20;;;7.30;79.80;;;6.40;66.21;94660.22;5062659;28;20202;-86
2022/01/30 04:20:37;;;;;;;4.90;2.60;;;7.30;79.70;;;6.40;65.95;94658.41;5047524;28;20222;-86
2022/01/30 04:23:34;;;;;;;6.22;2.40;;;7.40;79.60;;;6.44;64.81;94626.81;5053417;28;20230;-85
2022/01/30 04:26:43;;;;;;;5.78;2.47;;;7.40;79.10;;;6.49;65.53;94648.75;4979888;28;20266;-85
2022/01/30 04:29:31;;;;;;;6.75;2.35;;;7.40;79.20;;;6.53;65.83;94654.41;4932478;29;20242;-85
2022/01/30 04:32:18;;;;;;;3.78;2.40;;;7.50;79.10;;;6.54;65.89;94675.09;5036109;28;20248;-86
2022/01/30 04:35:10;;;;;;;4.43;2.30;;;7.50;79.30;;;6.54;66.23;94666.47;5060521;28;20353;-86
2022/01/30 04:38:17;;;;;;;5.00;3.38;;;7.50;79.10;;;6.52;65.73;94686.69;5042591;28;20203;-85
2022/01/30 04:41:26;;;;;;;5.72;1.90;;;7.60;79.20;;;6.49;65.74;94700.84;5028490;28;20247;-86
2022/01/30 04:52:07;;;;;;;6.43;2.45;;;7.40;78.90;;;6.23;65.54;94675.13;5079747;28;20263;-86
2022/01/30 05:08:12;;;;;;;7.50;2.20;;;7.10;79.20;;;6.17;65.89;94655.75;5080131;28;20194;-86
2022/01/30 05:11:02;;;;;;;4.45;2.15;;;7.10;79.20;;;6.23;65.57;94659.50;5063071;28;20199;-85
2022/01/30 05:13:51;;;;;;;8.50;2.50;;;7.10;79.10;;;6.23;64.70;94680.31;5063627;28;20202;-87
2022/01/30 05:16:38;;;;;;;5.95;2.33;;;7.10;78.60;;;6.27;63.58;94649.53;5063026;28;20203;-87
2022/01/30 05:19:26;;;;;;;5.07;2.15;;;7.10;77.30;;;6.34;63.16;94663.50;5043509;28;20219;-87
2022/01/30 05:22:10;;;;;;;7.60;2.20;;;7.20;77.90;;;6.36;61.37;94658.91;5021497;28;20227;-87
2022/01/30 05:24:45;;;;;;;5.40;2.53;;;7.20;77.10;;;6.50;60.75;94679.03;5031528;28;20226;-87
2022/01/30 05:27:31;;;;;;;6.78;2.05;;;7.10;76.80;;;6.54;59.68;94650.81;5078561;28;20209;-87
2022/01/30 05:30:17;;;;;;;3.78;2.22;;;7.20;76.00;;;6.60;59.25;94650.13;5052417;28;20711;-86
2022/01/30 05:33:04;;;;;;;5.18;2.17;;;7.30;75.50;;;6.65;57.86;94683.50;5044894;28;20218;-86
2022/01/30 05:35:45;;;;;;;5.40;2.20;;;7.30;74.80;;;6.65;55.26;94653.06;5057347;28;20222;-86
2022/01/30 05:38:37;;;;;;;10.15;2.85;;;7.40;73.70;;;6.63;54.52;94648.97;5046819;28;20341;-86
2022/01/30 05:41:23;;;;;;;6.78;2.30;;;7.30;73.20;;;6.63;54.24;94651.56;5065538;28;20289;-88
2022/01/30 05:44:14;;;;;;;6.90;2.40;;;7.30;73.00;;;6.71;54.55;94672.38;5078471;28;20233;-87
2022/01/30 05:46:59;;;;;;;5.57;2.30;;;7.40;72.70;;;6.68;53.34;94690.97;5058285;28;20696;-85
2022/01/30 05:49:56;;;;;;;5.68;2.30;;;7.40;71.70;;;6.66;53.15;94670.28;5042228;28;20219;-85
2022/01/30 05:52:48;;;;;;;4.75;2.67;;;7.40;71.00;;;6.67;52.55;94669.31;5037069;28;20196;-87
2022/01/30 05:55:31;;;;;;;6.10;2.42;;;7.40;71.40;;;6.67;53.83;94669.31;5041393;28;20229;-87
2022/01/30 05:57:59;;;;;;;9.45;2.83;;;7.40;72.00;;;6.61;53.80;94674.41;5043891;28;20199;-87
2022/01/30 06:00:45;;;;;;;6.82;2.92;;;7.40;71.90;;;6.58;53.53;94665.16;5061816;28;20241;-87
2022/01/30 06:03:13;;;;;;;8.07;2.70;;;7.40;71.40;;;6.54;54.34;94679.50;5036930;28;20198;-88
2022/01/30 06:05:41;;;;;;;5.70;2.67;;;7.30;71.90;;;6.48;53.92;94677.56;5058515;28;20221;-87
2022/01/30 06:08:15;;;;;;;8.13;2.50;;;7.40;71.70;;;6.40;54.45;94662.81;5042246;28;20566;-88
2022/01/30 06:10:45;;;;;;;5.82;2.65;;;7.40;72.10;;;6.38;54.34;94678.63;5055474;28;20668;-87
2022/01/30 06:13:13;;;;;;;5.70;2.63;;;7.30;71.90;;;6.30;54.93;94680.44;5042205;28;20198;-87
2022/01/30 06:15:40;;;;;;;6.13;2.67;;;7.20;71.90;;;6.22;54.60;94666.47;5042117;28;20615;-87
2022/01/30 06:18:17;;;;;;;9.57;2.88;;;7.20;71.60;;;6.21;54.88;94659.66;5022727;28;20195;-87
2022/01/30 06:21:19;;;;;;;6.32;2.63;;;7.20;72.00;;;6.16;54.99;94676.78;4967319;28;20475;-87
2022/01/30 06:23:53;;;;;;;7.47;3.05;;;7.20;72.20;;;6.22;54.56;94678.69;5021953;28;20270;-86
2022/01/30 06:26:39;;;;;;;6.28;2.50;;;7.10;72.00;;;6.23;55.00;94690.75;5052861;28;20274;-86
2022/01/30 06:29:19;;;;;;;6.38;2.42;;;7.10;73.10;;;6.24;54.17;94690.56;5058675;28;20230;-87
2022/01/30 06:32:06;;;;;;;10.00;2.75;;;7.10;72.00;;;6.29;54.43;94686.66;5074818;28;20243;-88
2022/01/30 06:34:53;;;;;;;7.15;2.50;;;7.10;71.90;;;6.35;54.91;94673.75;5077066;28;20395;-86
2022/01/30 06:37:39;;;;;;;7.38;2.22;;;7.10;72.30;;;6.38;54.51;94681.22;5041759;28;20202;-86
2022/01/30 06:40:37;;;;;;;7.68;2.47;;;7.10;72.10;;;6.48;54.75;94681.00;5051577;28;20215;-88
2022/01/30 06:43:50;;;;;;;5.15;2.10;;;7.20;72.30;;;6.50;54.54;94686.03;5046146;22;20266;31
2022/01/30 06:46:38;;;;;;;8.48;2.60;;;7.20;72.10;;;6.48;53.12;94691.44;4937539;29;20220;-86
2022/01/30 06:49:25;;;;;;;6.05;2.50;;;7.20;71.20;;;6.45;52.92;94698.78;4947193;29;20226;-86
2022/01/30 06:52:12;;;;;;;5.57;2.20;;;7.30;70.90;;;6.50;53.15;94689.44;4944405;29;20206;-88
2022/01/30 06:55:08;;;;;;;5.78;2.30;;;7.20;71.40;;;6.48;53.11;94707.06;4916924;29;20231;-89
2022/01/30 06:57:55;;;;;;;3.30;2.40;;;7.20;71.00;;;6.52;52.28;94702.31;4944223;29;20780;-87
2022/01/30 07:00:49;;;;;;;5.00;2.15;;;7.20;70.50;;;6.52;52.44;94737.00;4925791;29;20235;-88
2022/01/30 07:03:37;;;;;;;5.78;2.30;;;7.30;70.50;;;6.49;51.67;94707.88;4956952;29;20273;-87
2022/01/30 07:06:27;;;;;;;6.53;2.50;;;7.20;70.20;;;6.46;51.90;94684.75;4957669;29;20207;-86
2022/01/30 07:08:55;;;;;;;6.30;2.58;;;7.30;70.30;;;6.41;52.10;94685.28;4941404;29;20230;-88
2022/01/30 07:11:26;;;;;;;6.28;2.47;;;7.20;70.00;;;6.41;51.46;94682.69;4940736;29;20204;-89
2022/01/30 07:14:02;;;;;;;7.47;2.28;;;7.20;69.70;;;6.44;50.71;94702.38;4952545;29;20223;-91
2022/01/30 07:16:34;;;;;;;5.78;2.00;;;7.20;69.40;;;6.48;50.59;94701.84;4922269;29;20202;-90
2022/01/30 07:19:05;;;;;;;6.25;2.20;;;7.20;69.40;;;6.47;49.64;94722.84;4954203;29;20219;-87
2022/01/30 07:21:34;;;;;;;5.80;2.38;;;7.20;68.50;;;6.56;50.42;94738.25;4955763;29;20199;-87
2022/01/30 07:24:03;;;;;;;6.75;2.30;;;7.10;69.00;;;6.50;48.74;94730.34;4948857;29;20235;-88
2022/01/30 07:26:32;;;;;;;8.63;2.53;;;7.10;68.10;;;6.50;48.80;94720.72;4940366;29;20199;-89
2022/01/30 07:29:00;;;;;;;4.20;2.00;;;7.10;67.90;;;6.54;48.03;94758.50;4941206;29;20224;-88
2022/01/30 07:31:32;;;;;;;6.30;2.58;;;7.20;68.00;;;6.60;49.52;94762.19;4941122;29;20666;-93
2022/01/30 07:34:05;;;;;;;8.98;2.28;;;7.20;68.40;;;6.50;49.06;94759.00;4940812;29;20219;-87
2022/01/30 07:36:42;;;;;;;5.95;2.00;;;7.20;68.40;;;6.54;49.94;94744.63;4924790;29;20654;-92
2022/01/30 07:39:18;;;;;;;4.22;2.10;;;7.30;69.20;;;6.55;47.86;94787.94;4926520;29;20322;-88
2022/01/30 07:41:45;;;;;;;8.77;2.40;;;7.20;67.60;;;6.50;47.62;94743.38;4941144;29;20556;-89
2022/01/30 07:44:17;;;;;;;6.45;1.90;;;7.30;67.30;;;6.52;47.78;94746.63;4931829;29;20239;-90
2022/01/30 07:46:48;;;;;;;8.35;2.40;;;7.20;67.50;;;6.49;48.39;94776.41;4952308;29;20200;-89
2022/01/30 07:49:18;;;;;;;9.65;2.20;;;7.20;66.80;;;6.52;47.46;94777.88;4940424;29;20665;-86
2022/01/30 07:51:46;;;;;;;6.40;2.33;;;7.20;66.80;;;6.46;46.61;94786.34;4949554;29;20204;-87
2022/01/30 07:54:14;;;;;;;9.15;2.58;;;7.20;66.50;;;6.51;47.34;94782.28;4932044;29;20228;-86
2022/01/30 07:56:42;;;;;;;5.65;2.10;;;7.10;66.80;;;6.51;48.27;94789.28;4949252;28;20196;-87
2022/01/30 07:59:10;;;;;;;4.72;2.10;;;7.20;67.40;;;6.54;48.26;94788.94;4939701;29;20575;-87
2022/01/30 08:01:39;;;;;;;5.25;2.15;;;7.10;67.50;;;6.53;47.62;94790.75;4955580;29;20254;-87
2022/01/30 08:04:07;;;;;;;5.65;1.98;;;7.20;67.20;;;6.53;48.09;94795.13;4939962;29;20223;-88
2022/01/30 08:06:35;;;;;;;5.20;2.33;;;7.20;67.10;;;6.54;48.36;94817.59;4924855;29;20249;-87
2022/01/30 08:09:03;;;;;;;6.30;2.00;;;7.30;67.40;;;6.57;47.87;94812.84;4950004;29;20247;-88
2022/01/30 08:11:31;;;;;;;7.22;2.20;;;7.20;67.20;;;6.61;47.66;94800.31;4950060;29;20295;-86
2022/01/30 08:13:59;;;;;;;9.90;2.65;;;7.20;66.60;;;6.63;46.83;94813.16;4924444;29;20586;-87
2022/01/30 08:16:28;;;;;;;5.32;2.10;;;7.30;66.70;;;6.71;47.10;94802.69;4936623;29;20204;-88
2022/01/30 08:18:56;;;;;;;7.60;2.38;;;7.30;66.70;;;6.75;47.04;94797.97;4939079;29;20227;-87
2022/01/30 08:21:25;;;;;;;7.13;2.22;;;7.30;66.50;;;6.81;46.85;94820.72;4943108;29;20561;-87
2022/01/30 08:23:52;;;;;;;6.25;2.50;;;7.30;66.60;;;6.77;46.66;94825.47;4920760;29;20267;-87
2022/01/30 08:26:20;;;;;;;7.30;2.38;;;7.40;66.70;;;6.75;46.26;94811.00;4937754;29;20195;-86
2022/01/30 08:28:48;;;;;;;7.72;2.30;;;7.40;66.20;;;6.82;46.92;94823.19;4938671;29;20208;-88
2022/01/30 08:31:16;;;;;;;6.68;2.30;;;7.40;66.30;;;6.79;45.42;94799.25;4940396;29;20211;-86
2022/01/30 08:33:45;;;;;;;6.93;2.13;;;7.50;65.60;;;6.72;47.79;94815.56;4939846;29;20203;-89
2022/01/30 08:36:13;;;;;;;7.38;1.90;;;7.40;66.40;;;6.71;48.33;94833.97;4929065;29;20199;-87
2022/01/30 08:38:40;;;;;;;4.63;2.30;;;7.40;66.40;;;6.71;48.54;94813.94;4939040;29;20665;-86
2022/01/30 08:41:08;;;;;;;4.93;2.17;;;7.40;66.80;;;6.68;48.80;94818.69;4939343;29;20678;-87
2022/01/30 08:43:36;;;;;;;7.53;2.60;;;7.40;67.00;;;6.69;48.13;94815.91;4956014;29;20387;-87
2022/01/30 08:46:04;;;;;;;5.93;2.55;;;7.40;66.60;;;6.64;47.70;94812.19;4939736;29;20215;-87
2022/01/30 08:48:33;;;;;;;5.32;2.83;;;7.40;66.30;;;6.68;47.57;94857.78;4938524;29;20191;-88
2022/01/30 08:51:01;;;;;;;6.15;2.30;;;7.40;66.20;;;6.59;47.79;94828.31;4948064;29;20304;-88
2022/01/30 08:53:29;;;;;;;6.28;2.45;;;7.30;66.30;;;6.57;47.55;94849.34;4920393;29;20306;-88
2022/01/30 08:56:00;;;;;;;6.00;2.35;;;7.30;66.30;;;6.62;47.72;94848.84;4938166;29;20223;-88
2022/01/30 08:58:30;;;;;;;6.72;2.20;;;7.30;66.70;;;6.57;47.96;94830.28;4950962;28;20290;-91
2022/01/30 09:00:59;;;;;;;9.25;2.50;;;7.30;66.70;;;6.64;47.92;94828.66;4955420;29;20214;-91
2022/01/30 09:03:27;;;;;;;7.38;2.53;;;7.30;66.60;;;6.67;48.50;94850.94;4964104;28;20204;-87
2022/01/30 09:05:55;;;;;;;8.95;2.85;;;7.40;66.90;;;6.71;47.25;94827.00;4955894;28;20250;-87
2022/01/30 09:08:27;;;;;;;8.38;2.38;;;7.30;66.30;;;6.75;45.88;94803.16;4971072;28;20227;-86
2022/01/30 09:10:57;;;;;;;7.70;2.10;;;7.30;65.40;;;6.86;46.32;94839.28;4953307;28;20675;-87
2022/01/30 09:13:25;;;;;;;7.43;2.70;;;7.30;65.80;;;6.82;44.98;94791.91;4939989;29;20274;-87
2022/01/30 09:15:57;;;;;;;7.70;2.42;;;7.40;65.20;;;6.90;45.74;94817.13;4954659;29;20274;-87
2022/01/30 09:18:26;;;;;;;4.55;2.08;;;7.40;64.60;;;6.94;45.96;94807.94;4955057;29;20199;-87
2022/01/30 09:20:54;;;;;;;6.45;2.40;;;7.40;65.30;;;7.00;45.68;94796.03;4938260;29;20270;-86
2022/01/30 09:23:22;;;;;;;5.80;2.10;;;7.50;65.40;;;7.02;45.67;94799.28;4932388;29;20203;-86
2022/01/30 09:25:49;;;;;;;9.93;2.30;;;7.50;65.20;;;7.04;45.28;94826.00;4923291;29;20249;-87
2022/01/30 09:28:18;;;;;;;8.07;2.50;;;7.50;65.10;;;7.09;45.99;94847.13;4944288;29;20199;-86
2022/01/30 09:30:45;;;;;;;7.75;2.50;;;7.50;66.40;;;7.08;45.87;94792.56;4953564;29;20234;-89
2022/01/30 09:33:13;;;;;;;6.35;2.38;;;7.60;65.30;;;7.16;44.86;94862.94;4954638;29;20240;-87
2022/01/30 09:35:41;;;;;;;6.38;2.20;;;7.60;65.00;;;7.09;44.42;94779.34;4938642;29;20222;-88
2022/01/30 09:38:10;;;;;;;7.15;2.30;;;7.70;64.60;;;7.12;44.34;94823.34;4938251;29;20207;-88
2022/01/30 09:40:38;;;;;;;7.10;2.83;;;7.70;64.60;;;7.07;43.86;94822.22;4930982;29;20262;-86
2022/01/30 09:43:06;;;;;;;6.93;2.30;;;7.70;64.20;;;7.05;44.20;94838.88;4938006;29;20302;-89
2022/01/30 09:45:36;;;;;;;6.10;2.03;;;7.60;64.40;;;7.03;44.64;94804.31;4938346;29;20231;-88
2022/01/30 09:48:05;;;;;;;11.00;2.72;;;7.60;64.60;;;7.08;44.35;94811.66;4922485;29;20299;-88
2022/01/30 09:50:33;;;;;;;8.30;2.30;;;7.60;63.90;;;7.09;43.76;94843.72;4938349;29;20301;-88
2022/01/30 09:53:01;;;;;;;6.72;2.10;;;7.60;63.90;;;7.03;44.16;94813.94;4937866;29;20286;-87
2022/01/30 09:55:28;;;;;;;6.20;2.47;;;7.50;64.10;;;7.03;42.71;94801.72;4922456;29;20841;-87
2022/01/30 09:57:56;;;;;;;4.45;2.03;;;7.50;62.90;;;7.07;43.75;94810.00;4965785;28;20205;-88
2022/01/30 10:00:24;;;;;;;10.90;2.60;;;7.60;63.80;;;7.10;43.44;94817.47;4954148;28;20568;-86
2022/01/30 10:02:52;;;;;;;8.13;2.78;;;7.60;63.50;;;7.00;43.54;94817.69;4962747;28;20223;-88
2022/01/30 10:05:21;;;;;;;7.50;2.65;;;7.60;63.70;;;7.11;44.53;94831.34;4950781;29;20829;-88
2022/01/30 10:07:52;;;;;;;4.72;2.35;;;7.60;64.20;;;7.15;44.15;94814.34;4951074;29;20298;-88
2022/01/30 10:10:28;;;;;;;7.57;2.00;;;7.70;64.00;;;7.16;43.55;94907.28;4953588;29;20230;-87
2022/01/30 10:13:12;;;;;;;6.72;2.03;;;7.70;63.60;;;7.09;43.16;94849.75;4922435;29;20210;-88
2022/01/30 10:15:53;;;;;;;7.07;2.20;;;7.70;63.00;;;7.07;44.18;94830.88;4953893;29;20239;-89
2022/01/30 10:18:21;;;;;;;5.85;1.98;;;7.70;63.60;;;7.05;44.27;94827.63;4938268;29;20196;-89
2022/01/30 10:20:50;;;;;;;6.45;2.17;;;7.70;63.50;;;7.05;43.61;94864.13;4937821;29;20219;-89
2022/01/30 10:23:21;;;;;;;8.13;2.25;;;7.70;63.50;;;7.01;42.06;94866.25;4938261;29;20209;-89
2022/01/30 10:25:54;;;;;;;6.97;2.22;;;7.60;62.20;;;6.96;42.86;94889.44;4938028;29;20246;-89
2022/01/30 10:28:32;;;;;;;5.35;1.90;;;7.60;62.70;;;6.93;43.91;94887.16;4937982;29;20658;-88
2022/01/30 10:31:05;;;;;;;7.50;1.92;;;7.60;62.50;;;6.95;43.04;94869.56;4937837;29;20210;-89
2022/01/30 10:33:50;;;;;;;6.82;2.25;;;7.60;62.70;;;6.88;43.83;94866.81;4938066;29;20199;-89
2022/01/30 10:36:30;;;;;;;4.90;2.08;;;7.50;63.30;;;6.86;43.89;94884.44;4953302;29;20262;-89
2022/01/30 10:39:12;;;;;;;5.70;2.33;;;7.60;63.20;;;6.86;43.00;94865.34;4950453;28;20228;-88
2022/01/30 10:41:45;;;;;;;5.05;2.17;;;7.50;62.80;;;6.83;43.71;94860.50;4934924;29;20200;-89
2022/01/30 10:44:13;;;;;;;6.55;2.53;;;7.50;63.20;;;6.84;43.56;94877.75;4937485;28;20230;-89
2022/01/30 10:46:43;;;;;;;8.52;2.00;;;7.50;62.90;;;6.88;43.73;94881.66;4937590;29;20298;-89
2022/01/30 10:49:21;;;;;;;4.78;1.95;;;7.50;63.10;;;6.78;43.01;94844.56;4938002;29;20302;-90
2022/01/30 10:51:56;;;;;;;6.78;2.15;;;7.50;62.50;;;6.81;43.76;94906.75;4938069;29;20202;-88
2022/01/30 10:54:32;;;;;;;8.02;2.30;;;7.50;63.20;;;6.80;43.77;94872.06;4921727;28;20321;-89
2022/01/30 10:57:06;;;;;;;7.32;2.08;;;7.50;63.20;;;6.82;43.81;94883.16;4937917;29;20653;-88
2022/01/30 10:59:56;;;;;;;6.93;2.20;;;7.40;63.00;;;6.84;43.14;94928.09;4953561;29;20231;-89
2022/01/30 11:02:32;;;;;;;5.97;2.17;;;7.40;62.50;;;6.76;43.10;94893.44;4964139;28;20225;-88
2022/01/30 11:05:09;;;;;;;5.47;2.42;;;7.40;62.70;;;6.71;43.19;94883.50;4937074;29;20230;-90
2022/01/30 11:07:40;;;;;;;6.47;2.08;;;7.40;62.90;;;6.79;44.33;94877.47;4930573;29;20297;-89
2022/01/30 11:10:23;;;;;;;7.20;2.13;;;7.40;63.40;;;6.81;43.00;94885.91;4937384;29;20330;-88
2022/01/30 11:15:54;;;;;;;7.82;1.90;;;7.40;62.80;;;6.80;43.26;94835.56;4924651;29;20234;-89
2022/01/30 11:18:25;;;;;;;5.13;1.85;;;7.50;63.00;;;6.80;43.10;94824.31;4939064;29;20203;-89
2022/01/30 11:20:53;;;;;;;4.80;2.10;;;7.40;62.70;;;6.78;42.61;94821.88;4938007;29;20776;-89
2022/01/30 11:23:23;;;;;;;10.65;2.60;;;7.50;62.70;;;6.87;43.63;94823.50;4953383;28;20203;-89
2022/01/30 11:25:52;;;;;;;5.75;2.35;;;7.50;62.80;;;6.86;44.37;94827.06;4925805;29;20573;-90
2022/01/30 11:28:20;;;;;;;5.18;2.55;;;7.50;63.40;;;6.92;44.57;94835.19;4936579;29;20210;-89
2022/01/30 11:30:53;;;;;;;6.90;2.53;;;7.50;63.50;;;6.96;43.97;94818.22;4953615;29;20227;-88
2022/01/30 11:33:20;;;;;;;6.80;2.22;;;7.50;63.30;;;6.91;43.54;94742.31;4939250;29;20200;-88
2022/01/30 11:35:50;;;;;;;4.50;2.10;;;7.60;63.00;;;6.95;43.01;94806.97;4940858;29;20314;-89
2022/01/30 11:38:18;;;;;;;8.10;2.08;;;7.60;63.00;;;7.01;42.82;94849.81;4940978;29;20210;-89
2022/01/30 11:41:12;;;;;;;5.60;2.28;;;7.60;62.70;;;7.07;43.71;94854.34;4925705;29;20242;-89
2022/01/30 11:43:41;;;;;;;6.38;2.30;;;7.60;62.90;;;7.07;43.89;94822.22;4920597;28;20250;-88
2022/01/30 11:46:15;;;;;;;6.15;2.20;;;7.60;63.40;;;7.01;43.91;94836.78;4945690;28;20419;-88
2022/01/30 11:48:43;;;;;;;8.35;2.03;;;7.60;63.10;;;7.00;43.61;94820.31;4926362;28;20664;-88
2022/01/30 11:51:10;;;;;;;7.55;2.20;;;7.60;62.80;;;7.03;42.89;94803.50;4938983;29;20227;-88